createdAt,value
2022-12-18T00:01:20.760Z,73.40
2022-12-18T00:03:48.375Z,74.02
2022-12-18T00:06:16.644Z,74.42
2022-12-18T00:08:44.463Z,73.83
2022-12-18T00:11:19.760Z,73.44
2022-12-18T00:13:46.739Z,73.72
2022-12-18T00:16:16.751Z,74.21
2022-12-18T00:18:43.933Z,73.77
2022-12-18T00:21:13.014Z,73.91
2022-12-18T00:23:44.219Z,74.43
2022-12-18T00:26:20.050Z,74.72
2022-12-18T00:28:47.552Z,74.88
2022-12-18T00:31:18.397Z,74.32
2022-12-18T00:33:45.414Z,74.92
2022-12-18T00:36:15.624Z,75.78
2022-12-18T00:38:42.913Z,76.24
2022-12-18T00:41:11.556Z,76.31
2022-12-18T00:43:39.474Z,75.79
2022-12-18T00:46:07.380Z,75.49
2022-12-18T00:48:34.199Z,74.61
2022-12-18T00:51:00.938Z,73.89
2022-12-18T00:53:27.755Z,74.30
2022-12-18T00:55:55.704Z,74.32
2022-12-18T00:58:22.497Z,74.25
2022-12-18T01:00:49.467Z,74.20
2022-12-18T01:03:16.268Z,74.31
2022-12-18T01:05:44.436Z,74.34
2022-12-18T01:08:12.129Z,73.83
2022-12-18T01:10:42.455Z,73.86
2022-12-18T01:13:09.699Z,74.23
2022-12-18T01:15:36.860Z,75.10
2022-12-18T01:18:03.584Z,74.47
2022-12-18T01:20:31.429Z,74.59
2022-12-18T01:22:58.218Z,73.98
2022-12-18T01:25:25.068Z,73.44
2022-12-18T01:27:51.936Z,73.98
2022-12-18T01:30:18.832Z,74.04
2022-12-18T01:32:47.951Z,73.87
2022-12-18T01:35:14.606Z,73.18
2022-12-18T01:37:41.386Z,73.31
2022-12-18T01:40:08.849Z,73.62
2022-12-18T01:42:35.672Z,73.58
2022-12-18T01:45:14.477Z,73.82
2022-12-18T01:47:51.806Z,74.44
2022-12-18T01:50:28.501Z,74.30
2022-12-18T01:53:01.057Z,74.39
2022-12-18T01:55:33.149Z,74.52
2022-12-18T01:58:01.573Z,75.25
2022-12-18T02:00:29.681Z,76.24
2022-12-18T02:02:57.768Z,76.18
2022-12-18T02:06:05.886Z,75.90
2022-12-18T02:08:38.528Z,74.73
2022-12-18T02:11:23.472Z,74.50
2022-12-18T02:14:06.044Z,74.87
2022-12-18T02:16:43.524Z,75.44
2022-12-18T02:19:33.294Z,75.34
2022-12-18T02:22:00.481Z,76.07
2022-12-18T02:25:14.275Z,76.50
2022-12-18T02:27:45.258Z,76.14
2022-12-18T02:30:12.500Z,75.33
2022-12-18T02:32:43.221Z,74.71
2022-12-18T02:35:15.947Z,74.64
2022-12-18T02:37:46.208Z,73.98
2022-12-18T02:40:15.150Z,74.37
2022-12-18T02:42:43.228Z,74.09
2022-12-18T02:45:11.583Z,73.70
2022-12-18T02:47:41.835Z,74.01
2022-12-18T02:50:37.066Z,75.08
2022-12-18T02:53:25.381Z,74.39
2022-12-18T02:56:16.486Z,74.44
2022-12-18T02:58:43.229Z,74.34
2022-12-18T03:01:20.400Z,73.87
2022-12-18T03:04:00.580Z,73.85
2022-12-18T03:06:36.331Z,74.12
2022-12-18T03:09:11.772Z,74.63
2022-12-18T03:12:01.183Z,74.29
2022-12-18T03:14:32.107Z,73.96
2022-12-18T03:17:02.994Z,74.05
2022-12-18T03:19:33.718Z,74.30
2022-12-18T03:22:04.444Z,74.09
2022-12-18T03:24:41.109Z,74.42
2022-12-18T03:27:14.662Z,74.31
2022-12-18T03:29:53.942Z,75.21
2022-12-18T03:32:32.500Z,75.38
2022-12-18T03:35:05.329Z,74.70
2022-12-18T03:37:36.073Z,75.04
2022-12-18T03:40:04.807Z,75.46
2022-12-18T03:42:40.942Z,75.28
2022-12-18T03:45:19.790Z,75.16
2022-12-18T03:48:22.406Z,74.63
2022-12-18T03:51:01.361Z,74.98
2022-12-18T03:54:03.644Z,74.86
2022-12-18T03:56:38.847Z,74.34
2022-12-18T03:59:08.279Z,74.87
2022-12-18T04:01:40.817Z,75.11
2022-12-18T04:04:09.492Z,75.44
2022-12-18T04:06:40.115Z,75.05
2022-12-18T04:09:07.866Z,75.05
2022-12-18T04:11:39.064Z,74.81
2022-12-18T04:14:07.509Z,75.73
2022-12-18T04:16:34.959Z,76.44
2022-12-18T04:19:04.904Z,76.44
2022-12-18T04:21:37.941Z,76.66
2022-12-18T04:24:05.989Z,76.36
2022-12-18T04:26:34.497Z,76.17
2022-12-18T04:29:14.724Z,75.62
2022-12-18T04:31:41.572Z,75.60
2022-12-18T04:34:09.525Z,75.18
2022-12-18T04:36:42.198Z,75.65
2022-12-18T04:39:09.248Z,75.25
2022-12-18T04:41:35.943Z,75.04
2022-12-18T04:44:04.253Z,75.26
2022-12-18T04:46:30.963Z,75.78
2022-12-18T04:48:57.774Z,76.58
2022-12-18T04:51:26.621Z,76.29
2022-12-18T04:53:54.418Z,76.22
2022-12-18T04:56:21.556Z,75.12
2022-12-18T04:58:50.918Z,74.64
2022-12-18T05:01:19.437Z,74.96
2022-12-18T05:03:46.440Z,75.17
2022-12-18T05:06:13.417Z,75.84
2022-12-18T05:08:40.095Z,76.23
2022-12-18T05:11:11.132Z,76.01
2022-12-18T05:13:39.255Z,76.14
2022-12-18T05:16:06.911Z,75.83
2022-12-18T05:18:33.909Z,75.31
2022-12-18T05:21:00.909Z,74.33
2022-12-18T05:23:28.173Z,73.89
2022-12-18T05:26:03.980Z,74.80
2022-12-18T05:28:32.786Z,75.56
2022-12-18T05:31:02.020Z,75.11
2022-12-18T05:33:32.908Z,74.98
2022-12-18T05:36:01.917Z,75.67
2022-12-18T05:38:32.915Z,75.29
2022-12-18T05:41:03.125Z,75.35
2022-12-18T05:43:30.121Z,75.38
2022-12-18T05:45:57.886Z,75.52
2022-12-18T05:48:25.085Z,75.17
2022-12-18T05:50:52.077Z,75.09
2022-12-18T05:53:21.235Z,74.69
2022-12-18T05:55:48.336Z,74.82
2022-12-18T05:58:16.079Z,74.80
2022-12-18T06:00:45.685Z,75.54
2022-12-18T06:03:14.342Z,75.69
2022-12-18T06:05:46.428Z,75.51
2022-12-18T06:08:14.255Z,74.96
2022-12-18T06:10:42.165Z,75.25
2022-12-18T06:13:14.947Z,75.22
2022-12-18T06:15:41.687Z,75.24
2022-12-18T06:18:08.324Z,74.53
2022-12-18T06:20:37.589Z,75.23
2022-12-18T06:23:04.589Z,75.01
2022-12-18T06:25:33.051Z,74.72
2022-12-18T06:28:00.229Z,73.81
2022-12-18T06:30:27.147Z,72.82
2022-12-18T06:32:56.573Z,74.00
2022-12-18T06:35:23.983Z,72.94
2022-12-18T06:37:50.808Z,73.20
2022-12-18T06:40:17.743Z,72.85
2022-12-18T06:42:44.367Z,72.75
2022-12-18T06:45:12.401Z,72.66
2022-12-18T06:47:39.082Z,73.16
2022-12-18T06:50:06.562Z,74.37
2022-12-18T06:52:33.979Z,71.52
2022-12-18T06:55:00.893Z,73.91
2022-12-18T06:57:27.512Z,72.70
2022-12-18T06:59:54.201Z,72.25
2022-12-18T07:02:20.933Z,73.15
2022-12-18T07:04:47.686Z,73.81
2022-12-18T07:07:14.335Z,74.02
2022-12-18T07:09:41.055Z,73.60
2022-12-18T07:12:08.824Z,73.74
2022-12-18T07:14:35.626Z,73.30
2022-12-18T07:17:02.911Z,71.40
2022-12-18T07:19:30.459Z,72.05
2022-12-18T07:21:57.830Z,71.81
2022-12-18T07:24:24.554Z,71.39
2022-12-18T07:26:51.267Z,69.98
2022-12-18T07:29:18.010Z,71.71
2022-12-18T07:31:45.234Z,71.88
2022-12-18T07:34:13.592Z,73.92
2022-12-18T07:36:45.161Z,77.00
2022-12-18T07:39:12.815Z,76.50
2022-12-18T07:41:46.785Z,75.53
2022-12-18T07:44:16.252Z,77.11
2022-12-18T07:46:42.968Z,77.03
2022-12-18T07:49:09.641Z,76.38
2022-12-18T07:51:36.340Z,76.87
2022-12-18T07:54:03.032Z,75.52
2022-12-18T07:56:31.177Z,75.60
2022-12-18T07:58:59.872Z,75.02
2022-12-18T08:01:29.668Z,75.39
2022-12-18T08:03:56.543Z,75.41
2022-12-18T08:06:24.263Z,76.64
2022-12-18T08:08:55.639Z,76.39
2022-12-18T08:11:24.153Z,76.69
2022-12-18T08:13:51.254Z,75.32
2022-12-18T08:16:19.066Z,77.39
2022-12-18T08:18:46.764Z,75.78
2022-12-18T08:21:21.534Z,76.52
2022-12-18T08:23:48.787Z,76.00
2022-12-18T08:26:15.988Z,76.01
2022-12-18T08:28:43.006Z,75.94
2022-12-18T08:31:10.487Z,75.17
2022-12-18T08:33:39.038Z,74.94
2022-12-18T08:36:06.679Z,74.42
2022-12-18T08:38:34.196Z,74.28
2022-12-18T08:41:02.012Z,73.50
2022-12-18T08:44:04.315Z,72.66
2022-12-18T08:46:40.896Z,72.89
2022-12-18T08:49:08.963Z,73.25
2022-12-18T08:51:36.661Z,71.63
2022-12-18T08:54:04.597Z,70.47
2022-12-18T08:56:34.285Z,71.98
2022-12-18T08:59:01.355Z,71.43
2022-12-18T09:01:28.492Z,72.80
2022-12-18T09:03:55.364Z,73.01
2022-12-18T09:06:23.508Z,75.04
2022-12-18T09:08:50.349Z,71.90
2022-12-18T09:11:23.641Z,71.46
2022-12-18T09:13:50.710Z,72.42
2022-12-18T09:16:18.165Z,71.61
2022-12-18T09:18:44.964Z,70.16
2022-12-18T09:21:17.027Z,71.34
2022-12-18T09:23:44.051Z,72.66
2022-12-18T09:26:11.365Z,72.99
2022-12-18T09:28:38.561Z,73.03
2022-12-18T09:31:08.635Z,73.24
2022-12-18T09:33:38.996Z,72.21
2022-12-18T09:36:08.257Z,73.30
2022-12-18T09:38:35.893Z,71.61
2022-12-18T09:41:25.839Z,72.30
2022-12-18T09:44:00.668Z,71.68
2022-12-18T09:46:41.760Z,72.16
2022-12-18T09:49:15.700Z,71.42
2022-12-18T09:51:51.983Z,68.59
2022-12-18T09:54:27.203Z,71.53
2022-12-18T09:56:54.928Z,69.91
2022-12-18T09:59:26.601Z,70.85
2022-12-18T10:01:53.424Z,72.28
2022-12-18T10:04:20.373Z,70.29
2022-12-18T10:06:55.856Z,71.13
2022-12-18T10:09:38.101Z,70.46
2022-12-18T10:12:07.597Z,69.80
2022-12-18T10:14:53.334Z,69.64
2022-12-18T10:17:38.562Z,71.58
2022-12-18T10:20:23.444Z,71.88
2022-12-18T10:23:19.340Z,70.62
2022-12-18T10:25:56.132Z,73.41
2022-12-18T10:28:26.036Z,73.51
2022-12-18T10:30:53.003Z,71.06
2022-12-18T10:33:26.502Z,70.92
2022-12-18T10:35:54.046Z,72.74
2022-12-18T10:38:28.070Z,72.28
2022-12-18T10:41:07.260Z,69.84
2022-12-18T10:43:36.455Z,69.71
2022-12-18T10:46:09.392Z,72.96
2022-12-18T10:48:48.315Z,72.23
2022-12-18T10:51:27.131Z,73.04
2022-12-18T10:54:02.649Z,72.36
2022-12-18T10:56:32.214Z,71.78
2022-12-18T10:59:08.293Z,72.49
2022-12-18T11:01:55.017Z,70.84
2022-12-18T11:04:27.667Z,70.88
2022-12-18T11:07:06.444Z,68.52
2022-12-18T11:09:35.628Z,71.29
2022-12-18T11:12:24.681Z,71.23
2022-12-18T11:14:53.637Z,70.67
2022-12-18T11:17:26.082Z,70.29
2022-12-18T11:19:55.338Z,71.87
2022-12-18T11:22:27.355Z,71.41
2022-12-18T11:27:59.849Z,69.99
2022-12-18T11:30:36.159Z,70.52
2022-12-18T11:33:20.316Z,70.30
2022-12-18T11:36:03.752Z,71.40
2022-12-18T11:38:36.047Z,70.13
2022-12-18T11:41:49.962Z,70.33
2022-12-18T11:44:23.867Z,69.77
2022-12-18T11:47:00.823Z,69.73
2022-12-18T11:49:35.841Z,70.80
2022-12-18T11:52:32.054Z,70.30
2022-12-18T11:55:09.884Z,68.70
2022-12-18T11:58:02.002Z,69.95
2022-12-18T12:00:37.427Z,69.59
2022-12-18T12:03:28.727Z,71.11
2022-12-18T12:06:12.858Z,70.07
2022-12-18T12:09:03.779Z,69.63
2022-12-18T12:12:07.538Z,70.92
2022-12-18T12:14:46.333Z,70.84
2022-12-18T12:17:18.573Z,71.31
2022-12-18T12:20:16.899Z,71.80
2022-12-18T12:23:06.987Z,70.91
2022-12-18T12:25:55.261Z,71.67
2022-12-18T12:28:40.804Z,71.38
2022-12-18T12:31:33.946Z,70.32
2022-12-18T12:34:25.342Z,71.04
2022-12-18T12:37:10.331Z,70.01
2022-12-18T12:39:43.542Z,72.72
2022-12-18T12:42:53.868Z,72.00
2022-12-18T12:45:44.165Z,71.60
2022-12-18T12:48:19.989Z,70.69
2022-12-18T12:50:48.909Z,72.60
2022-12-18T12:53:25.629Z,69.67
2022-12-18T12:55:55.831Z,72.46
2022-12-18T12:58:44.416Z,71.30
2022-12-18T13:01:24.406Z,70.42
2022-12-18T13:04:13.885Z,70.00
2022-12-18T13:06:55.628Z,69.46
2022-12-18T13:09:22.471Z,69.90
2022-12-18T13:12:08.453Z,69.34
2022-12-18T13:14:37.557Z,70.39
2022-12-18T13:17:22.476Z,69.95
2022-12-18T13:20:12.737Z,70.10
2022-12-18T13:22:51.497Z,70.02
2022-12-18T13:25:39.323Z,70.00
2022-12-18T13:28:11.041Z,71.02
2022-12-18T13:30:57.425Z,72.29
2022-12-18T13:33:27.938Z,70.18
2022-12-18T13:36:16.672Z,68.45
2022-12-18T13:38:45.140Z,69.22
2022-12-18T13:41:25.699Z,70.18
2022-12-18T13:43:59.971Z,69.41
2022-12-18T13:46:47.090Z,67.82
2022-12-18T13:49:13.813Z,70.30
2022-12-18T13:51:50.770Z,71.38
2022-12-18T13:54:47.215Z,70.00
2022-12-18T13:57:39.684Z,69.97
2022-12-18T14:00:29.755Z,71.22
2022-12-18T14:02:58.586Z,72.39
2022-12-18T14:05:26.702Z,71.90
2022-12-18T14:07:54.745Z,72.76
2022-12-18T14:10:47.936Z,73.44
2022-12-18T14:13:16.173Z,74.60
2022-12-18T14:15:48.925Z,75.95
2022-12-18T14:18:15.545Z,75.65
2022-12-18T14:20:49.230Z,74.06
2022-12-18T14:23:44.215Z,72.50
2022-12-18T14:26:31.727Z,72.02
2022-12-18T14:29:02.274Z,72.71
2022-12-18T14:31:33.266Z,71.21
2022-12-18T14:34:02.916Z,71.83
2022-12-18T14:36:30.265Z,72.17
2022-12-18T14:38:59.583Z,71.21
2022-12-18T14:41:27.213Z,72.45
2022-12-18T14:43:55.836Z,71.38
2022-12-18T14:46:35.433Z,71.19
2022-12-18T14:49:25.362Z,71.38
2022-12-18T14:51:55.571Z,70.79
2022-12-18T14:54:24.258Z,70.91
2022-12-18T14:57:16.249Z,70.58
2022-12-18T14:59:43.168Z,69.56
2022-12-18T15:02:27.831Z,69.03
2022-12-18T15:05:19.947Z,70.73
2022-12-18T15:07:52.081Z,76.60
2022-12-18T15:10:27.254Z,78.10
2022-12-18T15:12:57.149Z,78.14
2022-12-18T15:15:39.041Z,77.95
2022-12-18T15:18:13.311Z,77.92
2022-12-18T15:20:56.709Z,76.94
2022-12-18T15:23:27.333Z,76.47
2022-12-18T15:26:09.590Z,73.69
2022-12-18T15:28:44.149Z,73.45
2022-12-18T15:31:12.336Z,72.43
2022-12-18T15:33:50.216Z,72.08
2022-12-18T15:36:20.855Z,72.81
2022-12-18T15:39:04.851Z,71.51
2022-12-18T15:41:36.012Z,72.91
2022-12-18T15:44:04.732Z,73.06
2022-12-18T15:46:32.083Z,72.73
2022-12-18T15:49:02.096Z,73.01
2022-12-18T15:51:39.498Z,73.95
2022-12-18T15:54:12.760Z,72.48
2022-12-18T15:56:58.285Z,72.00
2022-12-18T15:59:25.444Z,69.96
2022-12-18T16:01:54.139Z,70.56
2022-12-18T16:04:22.611Z,72.04
2022-12-18T16:09:37.562Z,73.33
2022-12-18T16:12:04.754Z,74.41
2022-12-18T16:14:33.076Z,72.19
2022-12-18T16:17:02.414Z,71.14
2022-12-18T16:19:30.398Z,70.36
2022-12-18T16:22:12.631Z,70.52
2022-12-18T16:24:43.769Z,70.22
2022-12-18T16:27:10.534Z,69.78
2022-12-18T16:29:37.179Z,69.79
2022-12-18T16:32:06.345Z,69.19
2022-12-18T16:34:41.366Z,68.68
2022-12-18T16:37:09.715Z,70.33
2022-12-18T16:39:37.875Z,73.98
2022-12-18T16:42:08.108Z,74.06
2022-12-18T16:44:35.305Z,70.63
2022-12-18T16:47:03.899Z,72.29
2022-12-18T16:49:30.965Z,74.04
2022-12-18T16:51:57.983Z,71.84
2022-12-18T16:54:25.400Z,71.66
2022-12-18T16:56:55.062Z,69.62
2022-12-18T16:59:22.333Z,70.13
2022-12-18T17:01:49.124Z,71.09
2022-12-18T17:04:17.221Z,71.16
2022-12-18T17:06:46.137Z,70.12
2022-12-18T17:09:17.583Z,71.51
2022-12-18T17:11:44.474Z,69.97
2022-12-18T17:14:15.184Z,69.82
2022-12-18T17:16:42.161Z,72.03
2022-12-18T17:19:15.324Z,73.98
2022-12-18T17:21:45.706Z,73.93
2022-12-18T17:24:12.384Z,73.16
2022-12-18T17:26:39.166Z,70.97
2022-12-18T17:29:06.199Z,69.52
2022-12-18T17:31:33.774Z,70.03
2022-12-18T17:34:03.041Z,72.52
2022-12-18T17:36:31.946Z,71.08
2022-12-18T17:39:00.840Z,69.02
2022-12-18T17:41:29.659Z,71.70
2022-12-18T17:44:00.570Z,72.27
2022-12-18T17:46:28.978Z,72.25
2022-12-18T17:48:55.744Z,72.26
2022-12-18T17:51:22.590Z,72.12
2022-12-18T17:53:49.483Z,73.04
2022-12-18T17:56:19.938Z,71.58
2022-12-18T17:58:48.119Z,68.70
2022-12-18T18:01:17.222Z,70.08
2022-12-18T18:03:45.134Z,70.20
2022-12-18T18:06:12.343Z,69.46
2022-12-18T18:08:39.090Z,68.74
2022-12-18T18:11:33.167Z,69.52
2022-12-18T18:14:00.743Z,69.17
2022-12-18T18:16:40.933Z,69.10
2022-12-18T18:19:20.026Z,71.11
2022-12-18T18:21:53.235Z,71.82
2022-12-18T18:24:42.758Z,72.08
2022-12-18T18:27:09.739Z,70.01
2022-12-18T18:29:36.582Z,69.25
2022-12-18T18:32:03.675Z,70.43
2022-12-18T18:34:32.326Z,70.55
2022-12-18T18:37:00.983Z,69.15
2022-12-18T18:39:28.245Z,70.54
2022-12-18T18:41:55.805Z,68.40
2022-12-18T18:44:33.912Z,67.04
2022-12-18T18:47:00.854Z,68.71
2022-12-18T18:49:28.667Z,69.28
2022-12-18T18:52:03.989Z,69.26
2022-12-18T18:54:31.422Z,67.53
2022-12-18T18:59:46.917Z,70.09
2022-12-18T19:02:18.044Z,69.12
2022-12-18T19:04:52.095Z,67.77
2022-12-18T19:07:29.641Z,69.55
2022-12-18T19:10:04.907Z,68.83
2022-12-18T19:12:51.590Z,69.24
2022-12-18T19:15:18.390Z,69.22
2022-12-18T19:17:47.065Z,69.04
2022-12-18T19:20:15.951Z,68.70
2022-12-18T19:22:42.725Z,68.21
2022-12-18T19:25:10.129Z,70.59
2022-12-18T19:27:38.921Z,69.70
2022-12-18T19:30:06.234Z,68.71
2022-12-18T19:32:34.258Z,68.10
2022-12-18T19:35:01.104Z,67.47
2022-12-18T19:37:28.646Z,68.74
2022-12-18T19:39:56.690Z,69.69
2022-12-18T19:42:30.641Z,69.01
2022-12-18T19:45:02.430Z,67.82
2022-12-18T19:47:30.167Z,67.36
2022-12-18T19:49:57.373Z,66.93
2022-12-18T19:52:24.225Z,66.76
2022-12-18T19:54:51.052Z,67.64
2022-12-18T19:57:17.745Z,69.60
2022-12-18T19:59:44.524Z,68.63
2022-12-18T20:02:13.785Z,71.27
2022-12-18T20:04:41.195Z,71.59
2022-12-18T20:07:08.449Z,72.31
2022-12-18T20:09:36.946Z,71.48
2022-12-18T20:12:04.830Z,72.13
2022-12-18T20:14:31.711Z,72.64
2022-12-18T20:17:08.509Z,70.68
2022-12-18T20:20:53.287Z,67.03
2022-12-18T20:31:06.426Z,71.34
2022-12-18T20:33:33.456Z,70.21
2022-12-18T20:36:08.804Z,67.93
2022-12-18T20:38:38.730Z,67.99
2022-12-18T20:41:11.818Z,67.78
2022-12-18T20:43:39.679Z,69.68
2022-12-18T20:46:09.779Z,71.21
2022-12-18T20:48:36.618Z,69.05
2022-12-18T20:51:07.610Z,68.81
2022-12-18T20:53:40.106Z,67.72
2022-12-18T20:56:17.821Z,68.66
2022-12-18T20:58:49.639Z,68.94
2022-12-18T21:01:19.224Z,69.92
2022-12-18T21:03:48.266Z,68.77
2022-12-18T21:06:17.645Z,68.70
2022-12-18T21:08:44.666Z,68.82
2022-12-18T21:11:39.228Z,67.94
2022-12-18T21:14:26.793Z,67.85
2022-12-18T21:16:54.180Z,68.00
2022-12-18T21:19:26.162Z,67.47
2022-12-18T21:21:54.361Z,67.60
2022-12-18T21:24:21.814Z,67.57
2022-12-18T21:26:50.857Z,67.53
2022-12-18T21:29:22.371Z,68.33
2022-12-18T21:31:49.664Z,69.00
2022-12-18T21:34:35.846Z,68.34
2022-12-18T21:37:02.833Z,67.62
2022-12-18T21:39:30.697Z,66.65
2022-12-18T21:42:17.026Z,66.72
2022-12-18T21:44:44.665Z,67.23
2022-12-18T21:47:22.326Z,67.91
2022-12-18T21:49:52.577Z,67.70
2022-12-18T21:52:21.571Z,69.18
2022-12-18T21:54:58.484Z,67.77
2022-12-18T21:57:27.486Z,66.47
2022-12-18T21:59:55.740Z,66.54
2022-12-18T22:02:23.055Z,67.60
2022-12-18T22:04:49.902Z,67.75
2022-12-18T22:07:17.086Z,67.25
2022-12-18T22:09:44.252Z,66.86
2022-12-18T22:12:12.981Z,66.04
2022-12-18T22:14:39.720Z,67.03
2022-12-18T22:17:06.529Z,67.75
2022-12-18T22:19:38.154Z,67.50
2022-12-18T22:22:09.509Z,67.29
2022-12-18T22:24:36.293Z,67.88
2022-12-18T22:27:03.336Z,68.53
2022-12-18T22:29:49.614Z,67.22
2022-12-18T22:32:20.402Z,68.08
2022-12-18T22:35:06.229Z,68.47
2022-12-18T22:37:36.988Z,68.90
2022-12-18T22:40:05.891Z,69.12
2022-12-18T22:42:32.869Z,68.66
2022-12-18T22:45:00.339Z,68.52
2022-12-18T22:47:30.114Z,69.07
2022-12-18T22:49:58.122Z,69.40
2022-12-18T22:52:25.274Z,69.38
2022-12-18T22:54:53.278Z,68.90
2022-12-18T22:57:21.795Z,68.94
2022-12-18T22:59:49.979Z,69.08
2022-12-18T23:02:19.279Z,69.63
2022-12-18T23:04:47.445Z,69.13
2022-12-18T23:07:14.585Z,69.77
2022-12-18T23:09:41.311Z,69.38
2022-12-18T23:12:14.261Z,69.82
2022-12-18T23:14:41.046Z,69.86
2022-12-18T23:17:07.671Z,69.80
2022-12-18T23:19:34.397Z,70.15
2022-12-18T23:22:03.507Z,70.68
2022-12-18T23:24:32.801Z,70.19
2022-12-18T23:26:59.517Z,70.40
2022-12-18T23:29:26.254Z,70.17
2022-12-18T23:31:53.114Z,70.14
2022-12-18T23:34:19.937Z,70.61
2022-12-18T23:36:47.490Z,70.40
2022-12-18T23:39:29.429Z,70.65
2022-12-18T23:42:00.638Z,70.80
2022-12-18T23:44:28.098Z,70.65
2022-12-18T23:46:55.338Z,70.85
2022-12-18T23:49:23.605Z,70.59
2022-12-18T23:51:50.678Z,70.59
2022-12-18T23:54:17.347Z,71.41
2022-12-18T23:56:49.018Z,71.42
2022-12-18T23:59:15.765Z,70.98
